createdAt,value
2022-11-16T00:00:46.667Z,99443.91
2022-11-16T00:03:12.864Z,99441.72
2022-11-16T00:05:39.078Z,99431.41
2022-11-16T00:08:05.282Z,99436.06
2022-11-16T00:10:31.497Z,99426.25
2022-11-16T00:12:57.705Z,99426.97
2022-11-16T00:15:23.912Z,99414.78
2022-11-16T00:17:50.112Z,99420.44
2022-11-16T00:20:16.319Z,99418.41
2022-11-16T00:22:42.523Z,99430.09
2022-11-16T00:25:08.811Z,99430.28
2022-11-16T00:27:35.016Z,99417.06
2022-11-16T00:30:01.253Z,99412.19
2022-11-16T00:32:27.444Z,99416.53
2022-11-16T00:34:53.653Z,99411.34
2022-11-16T00:37:19.863Z,99408.28
2022-11-16T00:39:46.083Z,99406.94
2022-11-16T00:42:12.289Z,99409.88
2022-11-16T00:44:38.506Z,99399.22
2022-11-16T00:47:04.803Z,99399.22
2022-11-16T00:49:31.012Z,99400.50
2022-11-16T00:51:57.204Z,99396.53
2022-11-16T00:54:23.408Z,99400.44
2022-11-16T00:56:49.618Z,99400.88
2022-11-16T00:59:15.834Z,99408.94
2022-11-16T01:01:42.077Z,99404.78
2022-11-16T01:04:08.360Z,99405.28
2022-11-16T01:06:34.563Z,99399.28
2022-11-16T01:09:00.764Z,99397.00
2022-11-16T01:11:26.970Z,99385.63
2022-11-16T01:13:53.377Z,99385.06
2022-11-16T01:16:19.961Z,99384.53
2022-11-16T01:18:49.704Z,99389.72
2022-11-16T01:21:16.013Z,99387.13
2022-11-16T01:23:42.208Z,99381.63
2022-11-16T01:26:08.409Z,99370.53
2022-11-16T01:28:34.816Z,99372.91
2022-11-16T01:31:01.266Z,99369.47
2022-11-16T01:33:27.470Z,99360.13
2022-11-16T01:35:53.676Z,99362.16
2022-11-16T01:38:19.876Z,99350.31
2022-11-16T01:40:46.080Z,99347.72
2022-11-16T01:43:32.526Z,99328.25
2022-11-16T01:45:58.730Z,99330.06
2022-11-16T01:48:25.997Z,99325.91
2022-11-16T01:50:52.265Z,99325.34
2022-11-16T01:53:18.456Z,99321.44
2022-11-16T01:55:44.709Z,99326.88
2022-11-16T01:58:16.257Z,99325.13
2022-11-16T02:00:42.515Z,99323.00
2022-11-16T02:03:08.766Z,99319.09
2022-11-16T02:05:50.306Z,99312.03
2022-11-16T02:08:35.547Z,99307.94
2022-11-16T02:11:13.613Z,99307.41
2022-11-16T02:13:45.931Z,99310.47
2022-11-16T02:16:19.334Z,99298.84
2022-11-16T02:18:45.484Z,99303.50
2022-11-16T02:21:22.911Z,99300.19
2022-11-16T02:23:52.118Z,99304.34
2022-11-16T02:26:18.326Z,99302.53
2022-11-16T02:29:03.180Z,99301.97
2022-11-16T02:31:30.455Z,99301.16
2022-11-16T02:33:56.660Z,99297.28
2022-11-16T02:36:23.421Z,99302.72
2022-11-16T02:38:51.491Z,99300.41
2022-11-16T02:41:18.613Z,99291.63
2022-11-16T02:43:45.532Z,99286.13
2022-11-16T02:46:26.787Z,99294.50
2022-11-16T02:48:53.439Z,99284.88
2022-11-16T02:51:19.643Z,99275.28
2022-11-16T02:54:01.148Z,99263.84
2022-11-16T02:56:27.352Z,99255.59
2022-11-16T02:58:54.598Z,99258.19
2022-11-16T03:01:24.785Z,99256.41
2022-11-16T03:03:52.768Z,99256.78
2022-11-16T03:06:26.644Z,99258.31
2022-11-16T03:08:56.423Z,99262.47
2022-11-16T03:11:22.617Z,99269.22
2022-11-16T03:13:48.821Z,99262.72
2022-11-16T03:16:23.005Z,99257.72
2022-11-16T03:18:49.550Z,99246.53
2022-11-16T03:21:21.869Z,99240.56
2022-11-16T03:23:48.080Z,99243.44
2022-11-16T03:26:14.847Z,99248.34
2022-11-16T03:28:43.237Z,99231.22
2022-11-16T03:31:18.368Z,99225.53
2022-11-16T03:33:46.196Z,99218.78
2022-11-16T03:36:17.269Z,99217.22
2022-11-16T03:38:43.562Z,99228.09
2022-11-16T03:41:09.879Z,99226.53
2022-11-16T03:43:36.094Z,99227.38
2022-11-16T03:46:02.298Z,99229.44
2022-11-16T03:48:35.140Z,99232.78
2022-11-16T03:51:01.789Z,99232.84
2022-11-16T03:53:27.996Z,99234.88
2022-11-16T03:55:54.207Z,99235.38
2022-11-16T03:58:20.421Z,99233.31
2022-11-16T04:00:46.837Z,99233.09
2022-11-16T04:03:13.115Z,99223.28
2022-11-16T04:05:39.436Z,99214.72
2022-11-16T04:08:05.641Z,99222.78
2022-11-16T04:10:31.833Z,99213.69
2022-11-16T04:12:58.075Z,99209.78
2022-11-16T04:15:24.272Z,99203.53
2022-11-16T04:17:50.486Z,99194.25
2022-11-16T04:20:16.718Z,99209.25
2022-11-16T04:23:00.120Z,99206.91
2022-11-16T04:25:27.267Z,99207.94
2022-11-16T04:27:53.676Z,99198.28
2022-11-16T04:30:19.909Z,99209.59
2022-11-16T04:32:46.112Z,99195.66
2022-11-16T04:35:12.320Z,99215.03
2022-11-16T04:37:38.512Z,99226.94
2022-11-16T04:40:04.932Z,99234.13
2022-11-16T04:42:31.158Z,99221.41
2022-11-16T04:44:57.373Z,99217.03
2022-11-16T04:47:23.567Z,99215.53
2022-11-16T04:49:49.782Z,99186.81
2022-11-16T04:52:15.988Z,99201.00
2022-11-16T04:54:42.213Z,99196.13
2022-11-16T04:57:08.417Z,99197.66
2022-11-16T04:59:34.637Z,99183.44
2022-11-16T05:02:00.843Z,99178.78
2022-11-16T05:04:27.050Z,99182.91
2022-11-16T05:06:53.297Z,99179.63
2022-11-16T05:09:19.559Z,99185.34
2022-11-16T05:11:45.758Z,99188.97
2022-11-16T05:14:12.048Z,99188.47
2022-11-16T05:16:38.255Z,99187.47
2022-11-16T05:19:04.469Z,99188.25
2022-11-16T05:21:30.669Z,99177.41
2022-11-16T05:23:56.886Z,99188.25
2022-11-16T05:26:23.086Z,99182.09
2022-11-16T05:28:49.298Z,99173.53
2022-11-16T05:31:15.506Z,99162.94
2022-11-16T05:33:41.712Z,99175.41
2022-11-16T05:36:08.106Z,99173.06
2022-11-16T05:38:34.560Z,99158.59
2022-11-16T05:41:00.974Z,99154.50
2022-11-16T05:43:27.189Z,99156.53
2022-11-16T05:45:53.401Z,99156.84
2022-11-16T05:48:19.613Z,99157.41
2022-11-16T05:50:45.820Z,99148.31
2022-11-16T05:53:12.032Z,99150.97
2022-11-16T05:55:38.242Z,99144.03
2022-11-16T05:58:04.444Z,99145.09
2022-11-16T06:00:30.646Z,99146.91
2022-11-16T06:02:56.878Z,99148.72
2022-11-16T06:05:23.181Z,99144.06
2022-11-16T06:07:49.376Z,99137.59
2022-11-16T06:10:15.593Z,99142.34
2022-11-16T06:12:41.793Z,99142.03
2022-11-16T06:15:08.107Z,99143.31
2022-11-16T06:17:34.322Z,99137.63
2022-11-16T06:20:00.545Z,99147.22
2022-11-16T06:22:26.765Z,99144.38
2022-11-16T06:24:52.977Z,99142.81
2022-11-16T06:27:19.175Z,99138.19
2022-11-16T06:29:45.383Z,99135.59
2022-11-16T06:32:11.590Z,99141.56
2022-11-16T06:34:37.795Z,99137.16
2022-11-16T06:37:03.996Z,99142.13
2022-11-16T06:39:30.192Z,99142.09
2022-11-16T06:41:56.406Z,99142.09
2022-11-16T06:44:22.601Z,99138.22
2022-11-16T06:46:49.072Z,99149.13
2022-11-16T06:49:15.279Z,99133.31
2022-11-16T06:51:41.500Z,99141.63
2022-11-16T06:54:07.719Z,99147.59
2022-11-16T06:56:34.484Z,99146.81
2022-11-16T06:59:00.693Z,99127.16
2022-11-16T07:01:26.950Z,99149.41
2022-11-16T07:03:53.209Z,99148.09
2022-11-16T07:06:19.423Z,99145.28
2022-11-16T07:08:45.644Z,99138.75
2022-11-16T07:11:11.915Z,99135.38
2022-11-16T07:13:38.109Z,99140.56
2022-11-16T07:16:04.824Z,99147.31
2022-11-16T07:18:35.095Z,99129.94
2022-11-16T07:21:14.544Z,99129.69
2022-11-16T07:23:40.742Z,99126.84
2022-11-16T07:26:07.091Z,99113.63
2022-11-16T07:28:33.733Z,99119.59
2022-11-16T07:31:03.836Z,99112.84
2022-11-16T07:33:30.090Z,99120.63
2022-11-16T07:36:16.542Z,99112.84
2022-11-16T07:38:42.739Z,99114.66
2022-11-16T07:41:09.650Z,99123.72
2022-11-16T07:43:35.857Z,99115.19
2022-11-16T07:46:44.818Z,99123.47
2022-11-16T07:48:51.489Z,99102.47
2022-11-16T07:51:17.882Z,99122.69
2022-11-16T07:53:44.116Z,99096.22
2022-11-16T07:56:10.544Z,99119.56
2022-11-16T07:58:36.894Z,99114.66
2022-11-16T08:01:12.825Z,99109.72
2022-11-16T08:03:39.084Z,99107.13
2022-11-16T08:06:10.713Z,99112.56
2022-11-16T08:08:37.130Z,99101.16
2022-11-16T08:11:07.370Z,99118.22
2022-11-16T08:13:34.029Z,99120.34
2022-11-16T08:16:03.777Z,99109.69
2022-11-16T08:18:30.935Z,99107.91
2022-11-16T08:21:00.390Z,99105.31
2022-11-16T08:23:26.607Z,99116.44
2022-11-16T08:25:55.761Z,99112.56
2022-11-16T08:28:21.982Z,99106.59
2022-11-16T08:30:53.482Z,99117.22
2022-11-16T08:33:19.978Z,99108.69
2022-11-16T08:35:46.185Z,99110.50
2022-11-16T08:38:12.411Z,99126.28
2022-11-16T08:40:38.628Z,99106.06
2022-11-16T08:43:04.862Z,99113.09
2022-11-16T08:45:31.226Z,99105.28
2022-11-16T08:48:03.526Z,99106.34
2022-11-16T08:50:33.440Z,99108.66
2022-11-16T08:53:06.036Z,99114.91
2022-11-16T08:55:32.763Z,99112.59
2022-11-16T08:57:58.982Z,99126.28
2022-11-16T09:00:25.177Z,99120.38
2022-11-16T09:02:51.394Z,99119.34
2022-11-16T09:05:17.614Z,99132.53
2022-11-16T09:07:44.098Z,99128.38
2022-11-16T09:10:10.322Z,99128.41
2022-11-16T09:12:36.585Z,99134.16
2022-11-16T09:15:03.067Z,99137.72
2022-11-16T09:17:29.363Z,99140.09
2022-11-16T09:19:55.557Z,99138.56
2022-11-16T09:22:21.760Z,99147.63
2022-11-16T09:24:47.971Z,99160.34
2022-11-16T09:27:14.176Z,99156.97
2022-11-16T09:29:40.380Z,99150.75
2022-11-16T09:32:06.588Z,99168.91
2022-11-16T09:34:35.820Z,99175.66
2022-11-16T09:37:02.040Z,99176.19
2022-11-16T09:39:31.992Z,99198.75
2022-11-16T09:42:04.593Z,99200.31
2022-11-16T09:44:44.633Z,99213.34
2022-11-16T09:47:31.082Z,99228.91
2022-11-16T09:50:03.688Z,99235.09
2022-11-16T09:52:32.101Z,99252.53
2022-11-16T09:54:58.710Z,99265.81
2022-11-16T09:57:26.701Z,99280.06
2022-11-16T09:59:54.304Z,99279.31
2022-11-16T10:02:28.181Z,99291.25
2022-11-16T10:04:58.767Z,99314.31
2022-11-16T10:07:34.280Z,99315.91
2022-11-16T10:10:00.520Z,99315.63
2022-11-16T10:12:37.954Z,99323.41
2022-11-16T10:15:10.275Z,99335.09
2022-11-16T10:17:55.025Z,99341.84
2022-11-16T10:20:39.454Z,99352.81
2022-11-16T10:23:09.328Z,99351.19
2022-11-16T10:25:56.729Z,99380.22
2022-11-16T10:28:22.879Z,99383.34
2022-11-16T10:30:53.651Z,99394.84
2022-11-16T10:33:19.935Z,99406.81
2022-11-16T10:35:47.282Z,99408.59
2022-11-16T10:38:14.183Z,99415.06
2022-11-16T10:40:40.393Z,99415.25
2022-11-16T10:43:12.609Z,99420.56
2022-11-16T10:45:39.578Z,99434.53
2022-11-16T10:48:05.896Z,99424.16
2022-11-16T10:50:43.231Z,99430.66
2022-11-16T10:53:13.609Z,99427.56
2022-11-16T10:55:39.808Z,99434.28
2022-11-16T10:58:06.115Z,99447.00
2022-11-16T11:00:36.428Z,99455.38
2022-11-16T11:03:02.682Z,99450.13
2022-11-16T11:05:28.880Z,99456.88
2022-11-16T11:08:02.329Z,99458.19
2022-11-16T11:10:38.521Z,99465.69
2022-11-16T11:13:10.774Z,99467.50
2022-11-16T11:15:37.373Z,99489.03
2022-11-16T11:18:15.785Z,99480.22
2022-11-16T11:20:45.009Z,99483.69
2022-11-16T11:23:15.860Z,99501.28
2022-11-16T11:25:48.311Z,99496.41
2022-11-16T11:28:20.688Z,99499.00
2022-11-16T11:31:01.968Z,99507.34
2022-11-16T11:33:35.840Z,99508.38
2022-11-16T11:36:05.448Z,99513.03
2022-11-16T11:38:31.802Z,99525.53
2022-11-16T11:41:01.659Z,99528.34
2022-11-16T11:43:28.141Z,99530.69
2022-11-16T11:45:56.549Z,99535.13
2022-11-16T11:48:41.325Z,99531.75
2022-11-16T11:51:19.164Z,99539.50
2022-11-16T11:53:51.548Z,99539.97
2022-11-16T11:56:17.744Z,99551.69
2022-11-16T11:58:43.966Z,99551.59
2022-11-16T12:01:23.753Z,99555.75
2022-11-16T12:03:57.491Z,99563.53
2022-11-16T12:06:44.268Z,99555.75
2022-11-16T12:09:19.763Z,99558.34
2022-11-16T12:12:04.801Z,99566.38
2022-11-16T12:14:45.043Z,99565.59
2022-11-16T12:17:17.834Z,99580.38
2022-11-16T12:20:03.315Z,99575.53
2022-11-16T12:22:44.726Z,99584.63
2022-11-16T12:25:28.602Z,99596.72
2022-11-16T12:28:10.982Z,99599.97
2022-11-16T12:30:55.615Z,99594.47
2022-11-16T12:33:21.777Z,99603.47
2022-11-16T12:36:06.748Z,99609.25
2022-11-16T12:38:38.360Z,99609.44
2022-11-16T12:41:07.525Z,99613.84
2022-11-16T12:43:48.180Z,99612.06
2022-11-16T12:46:17.401Z,99616.00
2022-11-16T12:49:06.927Z,99625.81
2022-11-16T12:51:33.215Z,99625.13
2022-11-16T12:54:19.263Z,99631.09
2022-11-16T12:56:48.881Z,99632.13
2022-11-16T12:59:18.276Z,99639.34
2022-11-16T13:02:03.373Z,99650.28
2022-11-16T13:04:33.917Z,99642.50
2022-11-16T13:07:10.435Z,99662.50
2022-11-16T13:09:37.565Z,99645.44
2022-11-16T13:12:05.384Z,99641.50
2022-11-16T13:14:37.142Z,99642.78
2022-11-16T13:17:03.351Z,99652.69
2022-11-16T13:19:29.931Z,99647.97
2022-11-16T13:21:57.929Z,99654.22
2022-11-16T13:24:27.154Z,99662.28
2022-11-16T13:27:11.930Z,99663.06
2022-11-16T13:29:43.479Z,99666.03
2022-11-16T13:32:22.009Z,99669.16
2022-11-16T13:34:48.209Z,99663.72
2022-11-16T13:37:33.283Z,99657.50
2022-11-16T13:39:59.452Z,99661.63
2022-11-16T13:42:25.652Z,99665.53
2022-11-16T13:44:51.959Z,99663.44
2022-11-16T13:47:19.989Z,99670.44
2022-11-16T13:49:49.667Z,99675.78
2022-11-16T13:52:24.993Z,99684.97
2022-11-16T13:54:57.880Z,99671.03
2022-11-16T13:57:25.039Z,99688.19
2022-11-16T14:00:10.494Z,99686.06
2022-11-16T14:02:40.509Z,99689.66
2022-11-16T14:05:12.585Z,99700.81
2022-11-16T14:07:41.605Z,99687.56
2022-11-16T14:10:07.800Z,99685.13
2022-11-16T14:12:37.203Z,99693.53
2022-11-16T14:15:16.408Z,99703.66
2022-11-16T14:17:52.354Z,99706.63
2022-11-16T14:20:37.322Z,99713.38
2022-11-16T14:23:22.098Z,99725.81
2022-11-16T14:26:06.365Z,99713.63
2022-11-16T14:28:42.213Z,99749.25
2022-11-16T14:31:28.687Z,99757.69
2022-11-16T14:33:55.380Z,99780.13
2022-11-16T14:36:34.462Z,99785.81
2022-11-16T14:39:13.993Z,99804.34
2022-11-16T14:41:40.209Z,99807.97
2022-11-16T14:44:07.828Z,99820.94
2022-11-16T14:46:34.542Z,99820.31
2022-11-16T14:49:00.813Z,99825.56
2022-11-16T14:51:36.697Z,99800.59
2022-11-16T14:54:11.365Z,99785.72
2022-11-16T14:56:37.572Z,99766.16
2022-11-16T14:59:03.775Z,99770.56
2022-11-16T15:01:31.143Z,99745.97
2022-11-16T15:03:58.737Z,99767.63
2022-11-16T15:06:24.994Z,99757.41
2022-11-16T15:08:55.653Z,99753.25
2022-11-16T15:11:23.506Z,99757.09
2022-11-16T15:13:49.717Z,99759.75
2022-11-16T15:16:17.225Z,99747.09
2022-11-16T15:18:56.556Z,99758.50
2022-11-16T15:21:22.812Z,99745.16
2022-11-16T15:24:08.341Z,99746.22
2022-11-16T15:26:35.198Z,99760.44
2022-11-16T15:29:01.410Z,99751.09
2022-11-16T15:31:27.892Z,99749.41
2022-11-16T15:33:54.114Z,99734.41
2022-11-16T15:36:31.213Z,99729.16
2022-11-16T15:38:57.550Z,99719.63
2022-11-16T15:41:23.814Z,99681.44
2022-11-16T15:44:12.311Z,99669.59
2022-11-16T15:46:39.567Z,99664.84
2022-11-16T15:49:08.980Z,99655.38
2022-11-16T15:51:35.664Z,99645.28
2022-11-16T15:54:20.502Z,99655.56
2022-11-16T15:56:46.700Z,99651.94
2022-11-16T15:59:18.017Z,99646.59
2022-11-16T16:01:44.464Z,99663.69
2022-11-16T16:04:14.457Z,99651.22
2022-11-16T16:06:44.792Z,99636.38
2022-11-16T16:09:18.633Z,99632.09
2022-11-16T16:11:44.876Z,99663.28
2022-11-16T16:14:11.080Z,99663.94
2022-11-16T16:16:37.480Z,99671.41
2022-11-16T16:19:23.305Z,99699.03
2022-11-16T16:21:49.521Z,99691.72
2022-11-16T16:24:34.519Z,99699.38
2022-11-16T16:27:00.725Z,99692.63
2022-11-16T16:29:27.390Z,99694.44
2022-11-16T16:31:53.782Z,99713.91
2022-11-16T16:34:19.988Z,99724.31
2022-11-16T16:36:46.182Z,99732.84
2022-11-16T16:39:12.401Z,99743.44
2022-11-16T16:41:38.720Z,99781.09
2022-11-16T16:44:05.236Z,99815.44
2022-11-16T16:46:31.436Z,99793.81
2022-11-16T16:48:57.651Z,99792.38
2022-11-16T16:51:23.857Z,99791.91
2022-11-16T16:53:50.074Z,99828.19
2022-11-16T16:56:16.419Z,99855.41
2022-11-16T16:58:42.638Z,99875.63
2022-11-16T17:01:09.435Z,99911.31
2022-11-16T17:03:35.983Z,99952.44
2022-11-16T17:06:02.402Z,99942.53
2022-11-16T17:08:34.952Z,99967.69
2022-11-16T17:11:01.241Z,99970.97
2022-11-16T17:13:27.460Z,99977.03
2022-11-16T17:15:53.668Z,99984.94
2022-11-16T17:18:19.874Z,99993.41
2022-11-16T17:20:46.092Z,100026.66
2022-11-16T17:23:12.301Z,100047.13
2022-11-16T17:25:38.503Z,100063.00
2022-11-16T17:28:04.709Z,100050.16
2022-11-16T17:30:30.924Z,100054.66
2022-11-16T17:32:57.120Z,100030.41
2022-11-16T17:35:23.332Z,100028.03
2022-11-16T17:37:49.533Z,100030.97
2022-11-16T17:40:15.735Z,100034.63
2022-11-16T17:42:41.941Z,100034.41
2022-11-16T17:45:08.219Z,100040.25
2022-11-16T17:47:34.426Z,100042.72
2022-11-16T17:50:00.650Z,100067.03
2022-11-16T17:52:26.860Z,100040.38
2022-11-16T17:54:53.082Z,100004.00
2022-11-16T17:57:19.275Z,99993.63
2022-11-16T17:59:45.502Z,99971.00
2022-11-16T18:02:11.695Z,99957.22
2022-11-16T18:04:37.888Z,99938.13
2022-11-16T18:07:04.126Z,99951.25
2022-11-16T18:09:30.340Z,99924.97
2022-11-16T18:11:56.550Z,99894.25
2022-11-16T18:14:22.746Z,99891.13
2022-11-16T18:16:48.991Z,99876.91
2022-11-16T18:19:18.505Z,99897.69
2022-11-16T18:21:44.744Z,99919.09
2022-11-16T18:24:10.999Z,99892.25
2022-11-16T18:26:37.228Z,99888.44
2022-11-16T18:29:03.479Z,99864.66
2022-11-16T18:31:29.750Z,99869.34
2022-11-16T18:33:55.995Z,99832.63
2022-11-16T18:36:22.201Z,99845.19
2022-11-16T18:38:48.428Z,99855.44
2022-11-16T18:41:14.602Z,99854.47
2022-11-16T18:44:01.034Z,99816.94
2022-11-16T18:46:27.947Z,99787.34
2022-11-16T18:48:54.437Z,99779.59
2022-11-16T18:51:20.804Z,99758.34
2022-11-16T18:53:46.992Z,99774.53
2022-11-16T18:56:13.209Z,99793.47
2022-11-16T18:58:54.866Z,99763.06
2022-11-16T19:01:25.084Z,99759.53
2022-11-16T19:03:51.762Z,99727.38
2022-11-16T19:06:18.337Z,99683.44
2022-11-16T19:08:46.073Z,99664.34
2022-11-16T19:11:15.417Z,99666.59
2022-11-16T19:13:41.965Z,99669.47
2022-11-16T19:16:08.658Z,99694.06
2022-11-16T19:18:35.406Z,99622.31
2022-11-16T19:21:08.654Z,99580.50
2022-11-16T19:23:38.255Z,99585.13
2022-11-16T19:26:04.536Z,99567.81
2022-11-16T19:28:40.227Z,99557.56
2022-11-16T19:31:25.455Z,99561.94
2022-11-16T19:33:54.914Z,99568.34
2022-11-16T19:36:21.150Z,99577.78
2022-11-16T19:38:47.492Z,99594.06
2022-11-16T19:41:14.052Z,99615.84
2022-11-16T19:43:40.412Z,99653.81
2022-11-16T19:46:10.440Z,99650.88
2022-11-16T19:48:36.723Z,99675.31
2022-11-16T19:51:03.654Z,99670.53
2022-11-16T19:53:29.870Z,99663.41
2022-11-16T19:55:56.059Z,99690.50
2022-11-16T19:58:22.269Z,99715.97
2022-11-16T20:00:48.692Z,99717.06
2022-11-16T20:03:14.991Z,99758.06
2022-11-16T20:05:41.181Z,99734.47
2022-11-16T20:08:07.414Z,99722.28
2022-11-16T20:10:33.612Z,99756.94
2022-11-16T20:12:59.822Z,99725.59
2022-11-16T20:15:26.018Z,99735.81
2022-11-16T20:17:52.318Z,99706.97
2022-11-16T20:20:18.573Z,99707.41
2022-11-16T20:22:44.774Z,99709.50
2022-11-16T20:25:10.967Z,99665.03
2022-11-16T20:27:37.168Z,99662.06
2022-11-16T20:30:09.031Z,99656.53
2022-11-16T20:32:35.845Z,99669.47
2022-11-16T20:35:02.050Z,99689.97
2022-11-16T20:37:28.271Z,99679.00
2022-11-16T20:39:54.478Z,99713.56
2022-11-16T20:42:20.703Z,99699.16
2022-11-16T20:44:46.915Z,99675.69
2022-11-16T20:47:13.146Z,99654.44
2022-11-16T20:49:39.344Z,99678.00
2022-11-16T20:52:05.562Z,99678.50
2022-11-16T20:54:31.761Z,99646.72
2022-11-16T20:56:57.969Z,99647.16
2022-11-16T20:59:24.167Z,99677.84
2022-11-16T21:01:50.411Z,99669.53
2022-11-16T21:04:16.635Z,99687.63
2022-11-16T21:06:42.840Z,99639.69
2022-11-16T21:09:10.870Z,99611.47
2022-11-16T21:11:37.072Z,99628.13
2022-11-16T21:14:03.271Z,99634.97
2022-11-16T21:16:29.482Z,99635.28
2022-11-16T21:18:55.699Z,99604.28
2022-11-16T21:21:21.901Z,99620.13
2022-11-16T21:23:48.134Z,99597.53
2022-11-16T21:26:14.520Z,99600.44
2022-11-16T21:28:40.906Z,99582.94
2022-11-16T21:31:07.717Z,99586.66
2022-11-16T21:33:34.180Z,99573.91
2022-11-16T21:36:04.264Z,99606.69
2022-11-16T21:38:30.941Z,99611.63
2022-11-16T21:40:57.154Z,99616.72
2022-11-16T21:43:23.367Z,99600.31
2022-11-16T21:45:49.564Z,99624.75
2022-11-16T21:48:15.761Z,99635.72
2022-11-16T21:50:41.983Z,99632.34
2022-11-16T21:53:08.200Z,99649.56
2022-11-16T21:55:34.417Z,99601.72
2022-11-16T21:58:00.698Z,99596.56
2022-11-16T22:00:27.077Z,99593.84
2022-11-16T22:02:53.313Z,99630.09
2022-11-16T22:05:19.604Z,99666.44
2022-11-16T22:07:45.814Z,99680.53
2022-11-16T22:10:12.160Z,99642.72
2022-11-16T22:12:38.411Z,99676.50
2022-11-16T22:15:05.217Z,99715.81
2022-11-16T22:17:31.433Z,99782.84
2022-11-16T22:19:57.648Z,99845.06
2022-11-16T22:22:23.941Z,99935.84
2022-11-16T22:24:50.267Z,100030.28
2022-11-16T22:27:16.542Z,100073.94
2022-11-16T22:29:42.815Z,100101.53
2022-11-16T22:32:09.185Z,100129.09
2022-11-16T22:34:35.445Z,100163.84
2022-11-16T22:37:01.779Z,100166.19
2022-11-16T22:39:27.991Z,100199.13
2022-11-16T22:41:54.193Z,100202.72
2022-11-16T22:44:20.388Z,100216.81
2022-11-16T22:46:46.596Z,100246.38
2022-11-16T22:49:12.788Z,100257.28
2022-11-16T22:51:38.987Z,100255.88
2022-11-16T22:54:06.360Z,100249.34
2022-11-16T22:56:32.653Z,100250.72
2022-11-16T22:58:58.858Z,100243.78
2022-11-16T23:01:25.061Z,100232.69
2022-11-16T23:03:51.305Z,100243.38
2022-11-16T23:06:17.579Z,100248.56
2022-11-16T23:08:43.807Z,100238.41
2022-11-16T23:11:13.733Z,100252.06
2022-11-16T23:13:39.926Z,100253.47
2022-11-16T23:16:06.181Z,100244.16
2022-11-16T23:18:32.393Z,100244.16
2022-11-16T23:20:58.610Z,100251.44
2022-11-16T23:23:24.817Z,100251.03
2022-11-16T23:25:51.053Z,100254.41
2022-11-16T23:28:17.265Z,100255.41
2022-11-16T23:30:43.497Z,100251.84
2022-11-16T23:33:09.727Z,100247.66
2022-11-16T23:35:35.943Z,100226.63
2022-11-16T23:38:02.614Z,100224.06
2022-11-16T23:40:35.647Z,100228.03
2022-11-16T23:43:01.879Z,100206.63
2022-11-16T23:45:28.094Z,100192.50
2022-11-16T23:47:54.300Z,100193.69
2022-11-16T23:50:20.504Z,100178.59
2022-11-16T23:52:46.706Z,100195.25
2022-11-16T23:55:12.905Z,100191.88
2022-11-16T23:57:39.111Z,100184.69
